TAF Text Data
IDs:
Format:
Raw Decoded Include METAR

Data at: 1426 UTC 25 Nov 2020

TAF PGUA 251000Z 2510/2616 09012G18KT 9999 SCT015 QNH2981INS
  TEMPO 2512/2516 09015G25KT 6000 -SHRA BKN015
  TEMPO 2522/2604 08015G25KT 8000 -SHRA BKN015 TX30/2602Z TN25/2518Z